sensor_id;sensor_type;location;lat;lon;timestamp;temperature;humidity
21271;DHT22;10795;50.796;3.860;2023-02-15T00:01:46;2.30;99.90
21271;DHT22;10795;50.796;3.860;2023-02-15T00:04:16;2.50;99.90
21271;DHT22;10795;50.796;3.860;2023-02-15T00:06:42;3.70;99.90
21271;DHT22;10795;50.796;3.860;2023-02-15T00:09:09;4.20;99.90
21271;DHT22;10795;50.796;3.860;2023-02-15T00:11:35;3.50;99.90
21271;DHT22;10795;50.796;3.860;2023-02-15T00:14:16;3.00;99.90
21271;DHT22;10795;50.796;3.860;2023-02-15T00:16:43;2.70;99.90
21271;DHT22;10795;50.796;3.860;2023-02-15T00:19:10;2.60;99.90
21271;DHT22;10795;50.796;3.860;2023-02-15T00:21:37;2.50;99.90
21271;DHT22;10795;50.796;3.860;2023-02-15T00:24:05;2.50;99.90
21271;DHT22;10795;50.796;3.860;2023-02-15T00:26:32;2.30;99.90
21271;DHT22;10795;50.796;3.860;2023-02-15T00:28:58;2.30;99.90
21271;DHT22;10795;50.796;3.860;2023-02-15T00:31:27;2.10;99.90
21271;DHT22;10795;50.796;3.860;2023-02-15T00:34:00;2.00;99.90
21271;DHT22;10795;50.796;3.860;2023-02-15T00:36:26;1.80;99.90
21271;DHT22;10795;50.796;3.860;2023-02-15T00:38:52;1.60;99.90
21271;DHT22;10795;50.796;3.860;2023-02-15T00:41:18;1.50;99.90
21271;DHT22;10795;50.796;3.860;2023-02-15T00:43:43;1.50;99.90
21271;DHT22;10795;50.796;3.860;2023-02-15T00:46:09;1.60;99.90
21271;DHT22;10795;50.796;3.860;2023-02-15T00:48:35;1.60;99.90
21271;DHT22;10795;50.796;3.860;2023-02-15T00:51:03;1.80;99.90
21271;DHT22;10795;50.796;3.860;2023-02-15T00:53:29;1.90;99.90
21271;DHT22;10795;50.796;3.860;2023-02-15T00:55:56;1.90;99.90
21271;DHT22;10795;50.796;3.860;2023-02-15T00:58:23;1.80;99.90
21271;DHT22;10795;50.796;3.860;2023-02-15T01:00:49;1.60;99.90
21271;DHT22;10795;50.796;3.860;2023-02-15T01:03:17;1.50;99.90
21271;DHT22;10795;50.796;3.860;2023-02-15T01:05:43;1.20;99.90
21271;DHT22;10795;50.796;3.860;2023-02-15T01:08:09;1.20;99.90
21271;DHT22;10795;50.796;3.860;2023-02-15T01:10:37;1.40;99.90
21271;DHT22;10795;50.796;3.860;2023-02-15T01:13:03;1.60;99.90
21271;DHT22;10795;50.796;3.860;2023-02-15T01:15:30;1.60;99.90
21271;DHT22;10795;50.796;3.860;2023-02-15T01:17:58;1.60;99.90
21271;DHT22;10795;50.796;3.860;2023-02-15T01:20:26;1.60;99.90
21271;DHT22;10795;50.796;3.860;2023-02-15T01:22:53;1.50;99.90
21271;DHT22;10795;50.796;3.860;2023-02-15T01:25:22;1.60;99.90
21271;DHT22;10795;50.796;3.860;2023-02-15T01:27:49;1.50;99.90
21271;DHT22;10795;50.796;3.860;2023-02-15T01:30:16;1.50;99.90
21271;DHT22;10795;50.796;3.860;2023-02-15T01:32:44;1.60;99.90
21271;DHT22;10795;50.796;3.860;2023-02-15T01:35:11;1.60;99.90
21271;DHT22;10795;50.796;3.860;2023-02-15T01:37:37;1.40;99.90
21271;DHT22;10795;50.796;3.860;2023-02-15T01:40:07;1.20;99.90
21271;DHT22;10795;50.796;3.860;2023-02-15T01:42:34;1.00;99.90
21271;DHT22;10795;50.796;3.860;2023-02-15T01:48:06;1.20;99.90
21271;DHT22;10795;50.796;3.860;2023-02-15T01:50:44;1.10;99.90
21271;DHT22;10795;50.796;3.860;2023-02-15T01:56:06;1.30;99.90
21271;DHT22;10795;50.796;3.860;2023-02-15T01:58:32;1.30;99.90
21271;DHT22;10795;50.796;3.860;2023-02-15T02:01:00;1.10;99.90
21271;DHT22;10795;50.796;3.860;2023-02-15T02:04:18;1.10;99.90
21271;DHT22;10795;50.796;3.860;2023-02-15T02:06:50;1.20;99.90
21271;DHT22;10795;50.796;3.860;2023-02-15T02:09:16;0.90;99.90
21271;DHT22;10795;50.796;3.860;2023-02-15T02:11:44;1.10;99.90
21271;DHT22;10795;50.796;3.860;2023-02-15T02:14:11;1.00;99.90
21271;DHT22;10795;50.796;3.860;2023-02-15T02:28:16;2.00;99.90
21271;DHT22;10795;50.796;3.860;2023-02-15T02:44:43;1.00;99.90
21271;DHT22;10795;50.796;3.860;2023-02-15T02:49:42;0.70;99.90
21271;DHT22;10795;50.796;3.860;2023-02-15T02:52:35;0.80;99.90
21271;DHT22;10795;50.796;3.860;2023-02-15T03:01:20;0.70;99.90
21271;DHT22;10795;50.796;3.860;2023-02-15T03:03:51;0.60;99.90
21271;DHT22;10795;50.796;3.860;2023-02-15T03:06:34;0.90;99.90
21271;DHT22;10795;50.796;3.860;2023-02-15T03:09:10;1.10;99.90
21271;DHT22;10795;50.796;3.860;2023-02-15T03:11:43;1.00;99.90
21271;DHT22;10795;50.796;3.860;2023-02-15T03:14:11;0.70;99.90
21271;DHT22;10795;50.796;3.860;2023-02-15T03:16:43;0.80;99.90
21271;DHT22;10795;50.796;3.860;2023-02-15T03:19:25;0.70;99.90
21271;DHT22;10795;50.796;3.860;2023-02-15T03:21:56;0.50;99.90
21271;DHT22;10795;50.796;3.860;2023-02-15T03:24:43;0.40;99.90
21271;DHT22;10795;50.796;3.860;2023-02-15T03:27:22;0.40;99.90
21271;DHT22;10795;50.796;3.860;2023-02-15T03:29:53;0.50;99.90
21271;DHT22;10795;50.796;3.860;2023-02-15T03:32:25;0.40;99.90
21271;DHT22;10795;50.796;3.860;2023-02-15T03:34:51;0.20;99.90
21271;DHT22;10795;50.796;3.860;2023-02-15T03:42:59;0.20;99.90
21271;DHT22;10795;50.796;3.860;2023-02-15T03:45:30;0.00;99.90
21271;DHT22;10795;50.796;3.860;2023-02-15T03:47:58;0.10;99.90
21271;DHT22;10795;50.796;3.860;2023-02-15T03:50:29;0.00;99.90
21271;DHT22;10795;50.796;3.860;2023-02-15T03:53:17;0.10;99.90
21271;DHT22;10795;50.796;3.860;2023-02-15T03:55:54;0.20;99.90
21271;DHT22;10795;50.796;3.860;2023-02-15T03:58:20;0.10;99.90
21271;DHT22;10795;50.796;3.860;2023-02-15T04:04:35;0.10;99.90
21271;DHT22;10795;50.796;3.860;2023-02-15T04:07:04;0.20;99.90
21271;DHT22;10795;50.796;3.860;2023-02-15T04:09:29;0.10;99.90
21271;DHT22;10795;50.796;3.860;2023-02-15T04:12:16;0.20;99.90
21271;DHT22;10795;50.796;3.860;2023-02-15T04:14:43;0.00;99.90
21271;DHT22;10795;50.796;3.860;2023-02-15T04:17:27;0.10;99.90
21271;DHT22;10795;50.796;3.860;2023-02-15T04:19:53;0.10;99.90
21271;DHT22;10795;50.796;3.860;2023-02-15T04:22:37;0.50;99.90
21271;DHT22;10795;50.796;3.860;2023-02-15T04:25:22;0.40;99.90
21271;DHT22;10795;50.796;3.860;2023-02-15T04:27:52;0.30;99.90
21271;DHT22;10795;50.796;3.860;2023-02-15T04:30:21;0.10;99.90
21271;DHT22;10795;50.796;3.860;2023-02-15T04:32:48;-0.10;99.90
21271;DHT22;10795;50.796;3.860;2023-02-15T04:35:14;-0.10;99.90
21271;DHT22;10795;50.796;3.860;2023-02-15T04:37:41;-0.30;99.90
21271;DHT22;10795;50.796;3.860;2023-02-15T04:40:09;-0.50;99.90
21271;DHT22;10795;50.796;3.860;2023-02-15T04:42:35;-0.40;99.90
21271;DHT22;10795;50.796;3.860;2023-02-15T04:45:01;-0.40;99.90
21271;DHT22;10795;50.796;3.860;2023-02-15T04:47:27;-0.50;99.90
21271;DHT22;10795;50.796;3.860;2023-02-15T04:49:52;-0.80;99.90
21271;DHT22;10795;50.796;3.860;2023-02-15T04:52:18;-0.90;99.90
21271;DHT22;10795;50.796;3.860;2023-02-15T04:54:45;-1.00;99.90
21271;DHT22;10795;50.796;3.860;2023-02-15T04:57:11;-1.00;99.90
21271;DHT22;10795;50.796;3.860;2023-02-15T04:59:37;-0.80;99.90
21271;DHT22;10795;50.796;3.860;2023-02-15T05:02:03;-0.70;99.90
21271;DHT22;10795;50.796;3.860;2023-02-15T05:04:29;-0.80;99.90
21271;DHT22;10795;50.796;3.860;2023-02-15T05:06:55;-0.80;99.90
21271;DHT22;10795;50.796;3.860;2023-02-15T05:09:21;-0.60;99.90
21271;DHT22;10795;50.796;3.860;2023-02-15T05:11:48;-0.50;99.90
21271;DHT22;10795;50.796;3.860;2023-02-15T05:14:16;-0.50;99.90
21271;DHT22;10795;50.796;3.860;2023-02-15T05:16:42;-0.50;99.90
21271;DHT22;10795;50.796;3.860;2023-02-15T05:19:08;-0.40;99.90
21271;DHT22;10795;50.796;3.860;2023-02-15T05:21:34;-0.40;99.90
21271;DHT22;10795;50.796;3.860;2023-02-15T05:24:00;-0.40;99.90
21271;DHT22;10795;50.796;3.860;2023-02-15T05:26:46;-0.40;99.90
21271;DHT22;10795;50.796;3.860;2023-02-15T05:29:31;-0.40;99.90
21271;DHT22;10795;50.796;3.860;2023-02-15T05:31:56;-0.30;99.90
21271;DHT22;10795;50.796;3.860;2023-02-15T05:34:25;-0.30;99.90
21271;DHT22;10795;50.796;3.860;2023-02-15T05:36:53;-0.30;99.90
21271;DHT22;10795;50.796;3.860;2023-02-15T05:39:40;-0.20;99.90
21271;DHT22;10795;50.796;3.860;2023-02-15T05:42:36;-0.30;99.90
21271;DHT22;10795;50.796;3.860;2023-02-15T05:45:02;0.20;99.90
21271;DHT22;10795;50.796;3.860;2023-02-15T05:47:29;0.10;99.90
21271;DHT22;10795;50.796;3.860;2023-02-15T05:49:55;-0.10;99.90
21271;DHT22;10795;50.796;3.860;2023-02-15T05:52:21;-0.20;99.90
21271;DHT22;10795;50.796;3.860;2023-02-15T05:54:47;-0.10;99.90
21271;DHT22;10795;50.796;3.860;2023-02-15T05:57:13;-0.10;99.90
21271;DHT22;10795;50.796;3.860;2023-02-15T05:59:39;0.20;99.90
21271;DHT22;10795;50.796;3.860;2023-02-15T06:02:04;0.30;99.90
21271;DHT22;10795;50.796;3.860;2023-02-15T06:04:32;1.00;99.90
21271;DHT22;10795;50.796;3.860;2023-02-15T06:06:58;0.70;99.90
21271;DHT22;10795;50.796;3.860;2023-02-15T06:09:23;0.20;99.90
21271;DHT22;10795;50.796;3.860;2023-02-15T06:11:49;-0.10;99.90
21271;DHT22;10795;50.796;3.860;2023-02-15T06:14:15;-0.30;99.90
21271;DHT22;10795;50.796;3.860;2023-02-15T06:16:41;-0.30;99.90
21271;DHT22;10795;50.796;3.860;2023-02-15T06:19:07;-0.20;99.90
21271;DHT22;10795;50.796;3.860;2023-02-15T06:21:33;-0.20;99.90
21271;DHT22;10795;50.796;3.860;2023-02-15T06:23:59;-0.10;99.90
21271;DHT22;10795;50.796;3.860;2023-02-15T06:26:25;-0.20;99.90
21271;DHT22;10795;50.796;3.860;2023-02-15T06:28:51;-0.10;99.90
21271;DHT22;10795;50.796;3.860;2023-02-15T06:31:17;-0.10;99.90
21271;DHT22;10795;50.796;3.860;2023-02-15T06:33:43;-0.10;99.90
21271;DHT22;10795;50.796;3.860;2023-02-15T06:36:09;-0.10;99.90
21271;DHT22;10795;50.796;3.860;2023-02-15T06:38:35;-0.20;99.90
21271;DHT22;10795;50.796;3.860;2023-02-15T06:41:00;-0.20;99.90
21271;DHT22;10795;50.796;3.860;2023-02-15T06:43:26;-0.20;99.90
21271;DHT22;10795;50.796;3.860;2023-02-15T06:45:52;-0.30;99.90
21271;DHT22;10795;50.796;3.860;2023-02-15T06:48:18;-0.30;99.90
21271;DHT22;10795;50.796;3.860;2023-02-15T06:50:44;-0.30;99.90
21271;DHT22;10795;50.796;3.860;2023-02-15T06:53:10;-0.30;99.90
21271;DHT22;10795;50.796;3.860;2023-02-15T06:55:36;-0.40;99.90
21271;DHT22;10795;50.796;3.860;2023-02-15T06:58:02;-0.40;99.90
21271;DHT22;10795;50.796;3.860;2023-02-15T07:00:28;-0.10;99.90
21271;DHT22;10795;50.796;3.860;2023-02-15T07:02:55;0.00;99.90
21271;DHT22;10795;50.796;3.860;2023-02-15T07:05:22;0.20;99.90
21271;DHT22;10795;50.796;3.860;2023-02-15T07:07:48;0.30;99.90
21271;DHT22;10795;50.796;3.860;2023-02-15T07:10:14;0.40;99.90
21271;DHT22;10795;50.796;3.860;2023-02-15T07:12:40;0.50;99.90
21271;DHT22;10795;50.796;3.860;2023-02-15T07:15:15;0.50;99.90
21271;DHT22;10795;50.796;3.860;2023-02-15T07:17:42;1.50;99.90
21271;DHT22;10795;50.796;3.860;2023-02-15T07:20:20;1.80;99.90
21271;DHT22;10795;50.796;3.860;2023-02-15T07:22:47;1.50;99.90
21271;DHT22;10795;50.796;3.860;2023-02-15T07:25:14;1.10;99.90
21271;DHT22;10795;50.796;3.860;2023-02-15T07:27:40;0.80;99.90
21271;DHT22;10795;50.796;3.860;2023-02-15T07:30:08;0.70;99.90
21271;DHT22;10795;50.796;3.860;2023-02-15T07:32:34;0.70;99.90
21271;DHT22;10795;50.796;3.860;2023-02-15T07:35:00;0.80;99.90
21271;DHT22;10795;50.796;3.860;2023-02-15T07:37:29;0.70;99.90
21271;DHT22;10795;50.796;3.860;2023-02-15T07:39:55;0.70;99.90
21271;DHT22;10795;50.796;3.860;2023-02-15T07:42:21;0.80;99.90
21271;DHT22;10795;50.796;3.860;2023-02-15T07:44:47;0.90;99.90
21271;DHT22;10795;50.796;3.860;2023-02-15T07:47:13;1.00;99.90
21271;DHT22;10795;50.796;3.860;2023-02-15T07:49:39;1.20;99.90
21271;DHT22;10795;50.796;3.860;2023-02-15T07:52:05;1.30;99.90
21271;DHT22;10795;50.796;3.860;2023-02-15T07:54:31;1.50;99.90
21271;DHT22;10795;50.796;3.860;2023-02-15T07:56:57;1.80;99.90
21271;DHT22;10795;50.796;3.860;2023-02-15T07:59:22;1.90;99.90
21271;DHT22;10795;50.796;3.860;2023-02-15T08:01:49;2.10;99.90
21271;DHT22;10795;50.796;3.860;2023-02-15T08:04:15;2.40;99.90
21271;DHT22;10795;50.796;3.860;2023-02-15T08:06:46;2.90;99.90
21271;DHT22;10795;50.796;3.860;2023-02-15T08:09:12;3.30;99.90
21271;DHT22;10795;50.796;3.860;2023-02-15T08:11:38;3.80;99.90
21271;DHT22;10795;50.796;3.860;2023-02-15T08:14:09;3.50;99.90
21271;DHT22;10795;50.796;3.860;2023-02-15T08:16:52;3.60;99.90
21271;DHT22;10795;50.796;3.860;2023-02-15T08:19:25;3.40;99.90
21271;DHT22;10795;50.796;3.860;2023-02-15T08:21:56;3.20;99.90
21271;DHT22;10795;50.796;3.860;2023-02-15T08:24:27;3.40;99.90
21271;DHT22;10795;50.796;3.860;2023-02-15T08:26:54;4.10;99.90
21271;DHT22;10795;50.796;3.860;2023-02-15T08:29:22;4.70;99.90
21271;DHT22;10795;50.796;3.860;2023-02-15T08:31:49;5.00;99.90
21271;DHT22;10795;50.796;3.860;2023-02-15T08:34:17;5.50;99.90
21271;DHT22;10795;50.796;3.860;2023-02-15T08:36:44;5.40;99.90
21271;DHT22;10795;50.796;3.860;2023-02-15T08:39:14;5.50;99.90
21271;DHT22;10795;50.796;3.860;2023-02-15T08:41:43;5.40;99.90
21271;DHT22;10795;50.796;3.860;2023-02-15T08:44:09;4.80;99.90
21271;DHT22;10795;50.796;3.860;2023-02-15T08:46:38;4.40;99.90
21271;DHT22;10795;50.796;3.860;2023-02-15T08:49:05;4.70;99.90
21271;DHT22;10795;50.796;3.860;2023-02-15T08:51:33;5.30;99.90
21271;DHT22;10795;50.796;3.860;2023-02-15T08:54:02;6.10;99.90
21271;DHT22;10795;50.796;3.860;2023-02-15T08:56:32;6.40;99.90
21271;DHT22;10795;50.796;3.860;2023-02-15T08:58:58;6.40;99.90
21271;DHT22;10795;50.796;3.860;2023-02-15T09:01:26;6.60;99.90
21271;DHT22;10795;50.796;3.860;2023-02-15T09:03:58;6.70;99.90
21271;DHT22;10795;50.796;3.860;2023-02-15T09:06:24;6.80;99.90
21271;DHT22;10795;50.796;3.860;2023-02-15T09:08:50;7.00;99.90
21271;DHT22;10795;50.796;3.860;2023-02-15T09:11:24;6.50;99.90
21271;DHT22;10795;50.796;3.860;2023-02-15T09:13:59;6.90;99.90
21271;DHT22;10795;50.796;3.860;2023-02-15T09:16:28;7.20;99.90
21271;DHT22;10795;50.796;3.860;2023-02-15T09:18:54;7.20;99.90
21271;DHT22;10795;50.796;3.860;2023-02-15T09:21:24;7.30;99.90
21271;DHT22;10795;50.796;3.860;2023-02-15T09:23:51;7.20;99.90
21271;DHT22;10795;50.796;3.860;2023-02-15T09:26:21;7.40;99.90
21271;DHT22;10795;50.796;3.860;2023-02-15T09:28:52;7.90;99.90
21271;DHT22;10795;50.796;3.860;2023-02-15T09:31:21;7.90;99.90
21271;DHT22;10795;50.796;3.860;2023-02-15T09:33:47;8.00;99.90
21271;DHT22;10795;50.796;3.860;2023-02-15T09:39:11;8.40;99.90
21271;DHT22;10795;50.796;3.860;2023-02-15T09:58:43;8.50;99.90
21271;DHT22;10795;50.796;3.860;2023-02-15T10:10:04;8.90;99.90
21271;DHT22;10795;50.796;3.860;2023-02-15T10:26:19;9.10;99.90
21271;DHT22;10795;50.796;3.860;2023-02-15T10:34:15;10.00;99.90
21271;DHT22;10795;50.796;3.860;2023-02-15T10:53:14;10.40;99.90
21271;DHT22;10795;50.796;3.860;2023-02-15T10:55:47;10.30;99.90
21271;DHT22;10795;50.796;3.860;2023-02-15T11:01:23;9.70;99.90
21271;DHT22;10795;50.796;3.860;2023-02-15T11:06:50;9.90;99.90
21271;DHT22;10795;50.796;3.860;2023-02-15T11:09:20;10.30;99.90
21271;DHT22;10795;50.796;3.860;2023-02-15T11:11:50;10.50;99.90
21271;DHT22;10795;50.796;3.860;2023-02-15T11:17:04;10.90;99.90
21271;DHT22;10795;50.796;3.860;2023-02-15T11:19:37;10.90;99.90
21271;DHT22;10795;50.796;3.860;2023-02-15T11:22:06;11.00;99.90
21271;DHT22;10795;50.796;3.860;2023-02-15T11:24:40;11.20;99.90
21271;DHT22;10795;50.796;3.860;2023-02-15T11:30:04;11.30;99.90
21271;DHT22;10795;50.796;3.860;2023-02-15T11:32:44;11.70;99.90
21271;DHT22;10795;50.796;3.860;2023-02-15T11:37:54;11.80;99.90
21271;DHT22;10795;50.796;3.860;2023-02-15T11:40:32;11.50;99.90
21271;DHT22;10795;50.796;3.860;2023-02-15T11:43:05;11.60;99.90
21271;DHT22;10795;50.796;3.860;2023-02-15T11:45:33;11.60;99.90
21271;DHT22;10795;50.796;3.860;2023-02-15T11:48:00;11.40;99.90
21271;DHT22;10795;50.796;3.860;2023-02-15T11:50:32;11.80;99.90
21271;DHT22;10795;50.796;3.860;2023-02-15T11:53:02;12.10;99.90
21271;DHT22;10795;50.796;3.860;2023-02-15T11:55:30;12.00;99.90
21271;DHT22;10795;50.796;3.860;2023-02-15T12:00:38;11.80;99.90
21271;DHT22;10795;50.796;3.860;2023-02-15T12:03:28;11.90;99.90
21271;DHT22;10795;50.796;3.860;2023-02-15T12:06:01;11.80;99.90
21271;DHT22;10795;50.796;3.860;2023-02-15T12:08:38;12.00;99.90
21271;DHT22;10795;50.796;3.860;2023-02-15T12:11:11;12.30;99.90
21271;DHT22;10795;50.796;3.860;2023-02-15T12:14:02;12.10;99.90
21271;DHT22;10795;50.796;3.860;2023-02-15T12:16:31;12.20;99.90
21271;DHT22;10795;50.796;3.860;2023-02-15T12:19:00;11.90;99.90
21271;DHT22;10795;50.796;3.860;2023-02-15T12:21:29;12.20;99.90
21271;DHT22;10795;50.796;3.860;2023-02-15T12:24:03;12.70;99.90
21271;DHT22;10795;50.796;3.860;2023-02-15T12:26:34;13.20;99.90
21271;DHT22;10795;50.796;3.860;2023-02-15T12:29:15;12.90;99.90
21271;DHT22;10795;50.796;3.860;2023-02-15T12:31:44;13.60;99.90
21271;DHT22;10795;50.796;3.860;2023-02-15T12:34:23;13.80;99.90
21271;DHT22;10795;50.796;3.860;2023-02-15T12:36:55;13.90;99.90
21271;DHT22;10795;50.796;3.860;2023-02-15T12:39:28;13.40;99.90
21271;DHT22;10795;50.796;3.860;2023-02-15T12:44:23;12.90;99.90
21271;DHT22;10795;50.796;3.860;2023-02-15T12:49:27;13.20;99.90
21271;DHT22;10795;50.796;3.860;2023-02-15T12:52:23;13.00;99.90
21271;DHT22;10795;50.796;3.860;2023-02-15T12:54:50;13.30;99.90
21271;DHT22;10795;50.796;3.860;2023-02-15T12:59:49;13.30;99.90
21271;DHT22;10795;50.796;3.860;2023-02-15T13:02:28;12.90;99.90
21271;DHT22;10795;50.796;3.860;2023-02-15T13:04:57;13.20;99.90
21271;DHT22;10795;50.796;3.860;2023-02-15T13:07:30;12.60;99.90
21271;DHT22;10795;50.796;3.860;2023-02-15T13:09:57;12.50;99.90
21271;DHT22;10795;50.796;3.860;2023-02-15T13:12:25;13.30;99.90
21271;DHT22;10795;50.796;3.860;2023-02-15T13:14:56;13.00;99.90
21271;DHT22;10795;50.796;3.860;2023-02-15T13:17:28;13.10;99.90
21271;DHT22;10795;50.796;3.860;2023-02-15T13:19:58;13.20;99.90
21271;DHT22;10795;50.796;3.860;2023-02-15T13:22:33;12.90;99.90
21271;DHT22;10795;50.796;3.860;2023-02-15T13:25:11;13.10;99.90
21271;DHT22;10795;50.796;3.860;2023-02-15T13:27:42;13.20;99.90
21271;DHT22;10795;50.796;3.860;2023-02-15T13:30:28;12.80;99.90
21271;DHT22;10795;50.796;3.860;2023-02-15T13:33:02;13.00;99.90
21271;DHT22;10795;50.796;3.860;2023-02-15T13:35:39;13.40;99.90
21271;DHT22;10795;50.796;3.860;2023-02-15T13:41:03;13.30;99.90
21271;DHT22;10795;50.796;3.860;2023-02-15T13:43:59;13.40;99.90
21271;DHT22;10795;50.796;3.860;2023-02-15T13:46:38;13.50;99.90
21271;DHT22;10795;50.796;3.860;2023-02-15T13:49:19;13.40;99.90
21271;DHT22;10795;50.796;3.860;2023-02-15T13:57:40;13.40;99.90
21271;DHT22;10795;50.796;3.860;2023-02-15T14:00:21;13.40;99.90
21271;DHT22;10795;50.796;3.860;2023-02-15T14:03:03;13.40;99.90
21271;DHT22;10795;50.796;3.860;2023-02-15T14:08:45;13.00;99.90
21271;DHT22;10795;50.796;3.860;2023-02-15T14:14:20;13.40;99.90
21271;DHT22;10795;50.796;3.860;2023-02-15T14:30:25;13.40;99.90
21271;DHT22;10795;50.796;3.860;2023-02-15T14:32:55;13.10;99.90
21271;DHT22;10795;50.796;3.860;2023-02-15T14:35:24;13.10;99.90
21271;DHT22;10795;50.796;3.860;2023-02-15T14:40:57;13.50;99.90
21271;DHT22;10795;50.796;3.860;2023-02-15T14:46:39;13.20;99.90
21271;DHT22;10795;50.796;3.860;2023-02-15T14:49:15;13.40;99.90
21271;DHT22;10795;50.796;3.860;2023-02-15T14:56:43;12.80;99.90
21271;DHT22;10795;50.796;3.860;2023-02-15T14:59:14;12.90;99.90
21271;DHT22;10795;50.796;3.860;2023-02-15T15:01:42;12.90;99.90
21271;DHT22;10795;50.796;3.860;2023-02-15T15:04:43;12.80;99.90
21271;DHT22;10795;50.796;3.860;2023-02-15T15:07:26;13.30;99.90
21271;DHT22;10795;50.796;3.860;2023-02-15T15:12:45;13.20;99.90
21271;DHT22;10795;50.796;3.860;2023-02-15T15:15:14;13.30;99.90
21271;DHT22;10795;50.796;3.860;2023-02-15T15:18:04;13.00;99.90
21271;DHT22;10795;50.796;3.860;2023-02-15T15:20:50;13.00;99.90
21271;DHT22;10795;50.796;3.860;2023-02-15T15:28:08;12.90;99.90
21271;DHT22;10795;50.796;3.860;2023-02-15T15:33:30;13.00;99.90
21271;DHT22;10795;50.796;3.860;2023-02-15T15:47:33;12.20;99.90
21271;DHT22;10795;50.796;3.860;2023-02-15T15:50:00;12.30;99.90
21271;DHT22;10795;50.796;3.860;2023-02-15T15:52:27;12.60;99.90
21271;DHT22;10795;50.796;3.860;2023-02-15T15:55:02;12.30;99.90
21271;DHT22;10795;50.796;3.860;2023-02-15T15:57:33;12.40;99.90
21271;DHT22;10795;50.796;3.860;2023-02-15T15:59:59;12.20;99.90
21271;DHT22;10795;50.796;3.860;2023-02-15T16:02:26;12.30;99.90
21271;DHT22;10795;50.796;3.860;2023-02-15T16:04:52;11.90;99.90
21271;DHT22;10795;50.796;3.860;2023-02-15T16:10:02;11.60;99.90
21271;DHT22;10795;50.796;3.860;2023-02-15T16:12:35;11.80;99.90
21271;DHT22;10795;50.796;3.860;2023-02-15T16:15:11;11.80;99.90
21271;DHT22;10795;50.796;3.860;2023-02-15T16:17:42;11.50;99.90
21271;DHT22;10795;50.796;3.860;2023-02-15T16:20:29;11.60;99.90
21271;DHT22;10795;50.796;3.860;2023-02-15T16:25:45;11.50;99.90
21271;DHT22;10795;50.796;3.860;2023-02-15T16:28:15;11.30;99.90
21271;DHT22;10795;50.796;3.860;2023-02-15T16:30:44;11.30;99.90
21271;DHT22;10795;50.796;3.860;2023-02-15T16:33:15;11.20;99.90
21271;DHT22;10795;50.796;3.860;2023-02-15T16:36:02;11.10;99.90
21271;DHT22;10795;50.796;3.860;2023-02-15T16:41:16;10.60;99.90
21271;DHT22;10795;50.796;3.860;2023-02-15T16:43:45;10.60;99.90
21271;DHT22;10795;50.796;3.860;2023-02-15T16:46:25;10.40;99.90
21271;DHT22;10795;50.796;3.860;2023-02-15T16:48:54;10.40;99.90
21271;DHT22;10795;50.796;3.860;2023-02-15T16:51:26;10.40;99.90
21271;DHT22;10795;50.796;3.860;2023-02-15T16:53:57;10.50;99.90
21271;DHT22;10795;50.796;3.860;2023-02-15T16:56:29;10.50;99.90
21271;DHT22;10795;50.796;3.860;2023-02-15T16:58:59;10.40;99.90
21271;DHT22;10795;50.796;3.860;2023-02-15T17:01:29;10.40;99.90
21271;DHT22;10795;50.796;3.860;2023-02-15T17:04:24;10.30;99.90
21271;DHT22;10795;50.796;3.860;2023-02-15T17:07:05;10.40;99.90
21271;DHT22;10795;50.796;3.860;2023-02-15T17:09:31;10.60;99.90
21271;DHT22;10795;50.796;3.860;2023-02-15T17:11:58;10.60;99.90
21271;DHT22;10795;50.796;3.860;2023-02-15T17:14:31;10.40;99.90
21271;DHT22;10795;50.796;3.860;2023-02-15T17:17:05;10.70;99.90
21271;DHT22;10795;50.796;3.860;2023-02-15T17:19:44;10.40;99.90
21271;DHT22;10795;50.796;3.860;2023-02-15T17:22:19;10.10;99.90
21271;DHT22;10795;50.796;3.860;2023-02-15T17:24:47;10.10;99.90
21271;DHT22;10795;50.796;3.860;2023-02-15T17:27:28;10.00;99.90
21271;DHT22;10795;50.796;3.860;2023-02-15T17:30:03;9.70;99.90
21271;DHT22;10795;50.796;3.860;2023-02-15T17:32:34;10.10;99.90
21271;DHT22;10795;50.796;3.860;2023-02-15T17:40:24;10.00;99.90
21271;DHT22;10795;50.796;3.860;2023-02-15T17:42:51;10.00;99.90
21271;DHT22;10795;50.796;3.860;2023-02-15T17:45:19;9.90;99.90
21271;DHT22;10795;50.796;3.860;2023-02-15T17:47:47;9.70;99.90
21271;DHT22;10795;50.796;3.860;2023-02-15T17:50:25;9.90;99.90
21271;DHT22;10795;50.796;3.860;2023-02-15T17:52:52;10.30;99.90
21271;DHT22;10795;50.796;3.860;2023-02-15T17:55:21;10.10;99.90
21271;DHT22;10795;50.796;3.860;2023-02-15T17:58:12;9.80;99.90
21271;DHT22;10795;50.796;3.860;2023-02-15T18:00:47;9.40;99.90
21271;DHT22;10795;50.796;3.860;2023-02-15T18:03:40;9.40;99.90
21271;DHT22;10795;50.796;3.860;2023-02-15T18:06:25;9.20;99.90
21271;DHT22;10795;50.796;3.860;2023-02-15T18:09:14;9.10;99.90
21271;DHT22;10795;50.796;3.860;2023-02-15T18:11:59;9.20;99.90
21271;DHT22;10795;50.796;3.860;2023-02-15T18:14:25;9.20;99.90
21271;DHT22;10795;50.796;3.860;2023-02-15T18:16:51;9.20;99.90
21271;DHT22;10795;50.796;3.860;2023-02-15T18:19:23;9.10;99.90
21271;DHT22;10795;50.796;3.860;2023-02-15T18:21:50;8.90;99.90
21271;DHT22;10795;50.796;3.860;2023-02-15T18:24:24;8.70;99.90
21271;DHT22;10795;50.796;3.860;2023-02-15T18:26:52;8.70;99.90
21271;DHT22;10795;50.796;3.860;2023-02-15T18:29:19;8.80;99.90
21271;DHT22;10795;50.796;3.860;2023-02-15T18:31:47;8.70;99.90
21271;DHT22;10795;50.796;3.860;2023-02-15T18:34:26;8.70;99.90
21271;DHT22;10795;50.796;3.860;2023-02-15T18:36:53;9.10;99.90
21271;DHT22;10795;50.796;3.860;2023-02-15T18:39:34;9.10;99.90
21271;DHT22;10795;50.796;3.860;2023-02-15T18:42:02;9.30;99.90
21271;DHT22;10795;50.796;3.860;2023-02-15T18:44:28;9.10;99.90
21271;DHT22;10795;50.796;3.860;2023-02-15T18:46:53;8.90;99.90
21271;DHT22;10795;50.796;3.860;2023-02-15T18:49:19;8.30;99.90
21271;DHT22;10795;50.796;3.860;2023-02-15T18:51:45;8.40;99.90
21271;DHT22;10795;50.796;3.860;2023-02-15T18:54:20;8.50;99.90
21271;DHT22;10795;50.796;3.860;2023-02-15T18:56:52;8.50;99.90
21271;DHT22;10795;50.796;3.860;2023-02-15T18:59:18;8.70;99.90
21271;DHT22;10795;50.796;3.860;2023-02-15T19:01:44;9.00;99.90
21271;DHT22;10795;50.796;3.860;2023-02-15T19:04:10;8.90;99.90
21271;DHT22;10795;50.796;3.860;2023-02-15T19:06:36;8.60;99.90
21271;DHT22;10795;50.796;3.860;2023-02-15T19:09:03;8.70;99.90
21271;DHT22;10795;50.796;3.860;2023-02-15T19:11:29;8.50;99.90
21271;DHT22;10795;50.796;3.860;2023-02-15T19:13:55;8.20;99.90
21271;DHT22;10795;50.796;3.860;2023-02-15T19:16:33;8.40;99.90
21271;DHT22;10795;50.796;3.860;2023-02-15T19:19:00;8.60;99.90
21271;DHT22;10795;50.796;3.860;2023-02-15T19:21:28;8.40;99.90
21271;DHT22;10795;50.796;3.860;2023-02-15T19:24:07;7.90;99.90
21271;DHT22;10795;50.796;3.860;2023-02-15T19:26:37;7.60;99.90
21271;DHT22;10795;50.796;3.860;2023-02-15T19:29:05;7.80;99.90
21271;DHT22;10795;50.796;3.860;2023-02-15T19:31:31;7.60;99.90
21271;DHT22;10795;50.796;3.860;2023-02-15T19:33:57;7.70;99.90
21271;DHT22;10795;50.796;3.860;2023-02-15T19:36:22;7.80;99.90